ADDS TAF Data INFO
IDs: Format: Raw Decoded Include METARs

Data at: 0429 UTC 21 Jan 2018

KOAJ 202320Z 2100/2124 26003KT P6SM SKC AMD LTD TO CLD VIS AND WIND